This demonstration page uses our WeatherBlox Daily Observations layout. Learn more.

Left ArrowRight Arrow

Hourly Observations for February 17, 2021

Temp ( °F °C ) Dew Point ( °F °C ) Humidity (%) Winds ( mph kmh ) Pressure ( in mb ) Visibility ( mi km ) Precip ( " mm )
12:54 am 00:54 Cloudy 3 -16.1 -8 -22.2 60 60 SSE 9 15 30.26 1025 10 16.0934 0 0
1:54 am 01:54 Cloudy 3 -16.1 -8 -22.2 60 60 SSE 7 11 30.27 1025 10 16.0934 0 0
2:54 am 02:54 Cloudy 3 -16.1 -7 -21.7 62 62 SSE 6 9 30.26 1025 10 16.0934 0 0
3:54 am 03:54 Cloudy 3 -16.1 -7 -21.7 62 62 SE 7 11 30.26 1025 10 16.0934 0 0
4:54 am 04:54 Cloudy 3 -16.1 -7 -21.7 62 62 SSE 6 9 30.26 1025 10 16.0934 0 0
5:54 am 05:54 Cloudy 4 -15.6 -6 -21.1 63 63 SSE 8 13 30.27 1025 10 16.0934 0 0
6:54 am 06:54 Cloudy 4 -15.6 -5 -20.6 66 66 SE 8 13 30.27 1025 10 16.0934 0 0
7:54 am 07:54 Cloudy 5 -15 -5 -20.6 63 63 SSE 9 15 30.29 1026 10 16.0934 0 0
8:54 am 08:54 Cloudy 6 -14.4 -3 -19.4 66 66 SSE 7 11 30.3 1026 10 16.0934 0 0
9:54 am 09:54 Cloudy 7 -13.9 -1 -18.3 70 70 S 9 15 30.3 1026 10 16.0934 0 0
10:54 am 10:54 Cloudy 9 -12.8 1 -17.2 70 70 Calm 30.3 1026 10 16.0934 0 0
11:54 am 11:54 Cloudy 11 -11.7 1 -17.2 64 64 SE 6 9 30.3 1026 10 16.0934 0 0
12:54 pm 12:54 Cloudy 12 -11.1 2 -16.7 64 64 S 6 9 30.29 1026 10 16.0934 0 0
1:54 pm 13:54 Cloudy 14 -10 3 -16.1 61 61 SW 5 7 30.28 1025 10 16.0934 0 0
2:54 pm 14:54 Cloudy 15 -9.4 3 -16.1 59 59 SSE 6 9 30.27 1025 10 16.0934 0 0
3:54 pm 15:54 Cloudy 15 -9.4 2 -16.7 56 56 Calm 30.28 1026 10 16.0934 0 0
4:54 pm 16:54 Cloudy 15 -9.4 2 -16.7 56 56 Calm 30.29 1026 10 16.0934 0 0
5:54 pm 17:54 Cloudy 15 -9.4 2 -16.7 56 56 Calm 30.3 1026 10 16.0934 0 0
6:54 pm 18:54 Cloudy 15 -9.4 3 -16.1 59 59 WSW 3 6 30.33 1027 10 16.0934 0 0
7:54 pm 19:54 Cloudy 15 -9.4 3 -16.1 59 59 W 3 6 30.36 1028 10 16.0934 0 0
8:54 pm 20:54 Cloudy 15 -9.4 3 -16.1 59 59 WNW 3 6 30.37 1029 10 16.0934 0 0
9:54 pm 21:54 Cloudy 15 -9.4 3 -16.1 59 59 Calm 30.41 1030 10 16.0934 0 0
10:54 pm 22:54 Cloudy 14 -10 5 -15 67 67 Calm 30.42 1030 8 12.87472 0 0
11:54 pm 23:54 Cloudy 14 -10 6 -14.4 71 71 SSW 3 6 30.42 1030 9 14.48406 0 0

Powered by AerisWeather